sensor_id;sensor_type;location;lat;lon;timestamp;P1;durP1;ratioP1;P2;durP2;ratioP2
51612;SDS011;37694;51.748;14.326;2023-03-23T00:01:25;16.35;;;5.60;;
51612;SDS011;37694;51.748;14.326;2023-03-23T00:03:55;7.75;;;5.40;;
51612;SDS011;37694;51.748;14.326;2023-03-23T00:06:24;7.50;;;5.00;;
51612;SDS011;37694;51.748;14.326;2023-03-23T00:08:52;7.25;;;4.68;;
51612;SDS011;37694;51.748;14.326;2023-03-23T00:11:25;13.27;;;6.03;;
51612;SDS011;37694;51.748;14.326;2023-03-23T00:13:56;6.95;;;4.70;;
51612;SDS011;37694;51.748;14.326;2023-03-23T00:16:26;7.50;;;5.13;;
51612;SDS011;37694;51.748;14.326;2023-03-23T00:19:30;8.02;;;5.35;;
51612;SDS011;37694;51.748;14.326;2023-03-23T00:21:48;8.30;;;5.00;;
51612;SDS011;37694;51.748;14.326;2023-03-23T00:24:18;9.02;;;5.90;;
51612;SDS011;37694;51.748;14.326;2023-03-23T00:26:45;9.48;;;5.05;;
51612;SDS011;37694;51.748;14.326;2023-03-23T00:29:13;8.07;;;5.35;;
51612;SDS011;37694;51.748;14.326;2023-03-23T00:31:44;10.02;;;5.60;;
51612;SDS011;37694;51.748;14.326;2023-03-23T00:34:11;6.00;;;5.40;;
51612;SDS011;37694;51.748;14.326;2023-03-23T00:39:59;7.65;;;5.40;;
51612;SDS011;37694;51.748;14.326;2023-03-23T00:42:25;6.90;;;5.10;;
51612;SDS011;37694;51.748;14.326;2023-03-23T00:44:51;10.82;;;5.72;;
51612;SDS011;37694;51.748;14.326;2023-03-23T00:47:25;7.55;;;4.70;;
51612;SDS011;37694;51.748;14.326;2023-03-23T00:49:50;8.02;;;5.68;;
51612;SDS011;37694;51.748;14.326;2023-03-23T00:52:17;5.00;;;4.32;;
51612;SDS011;37694;51.748;14.326;2023-03-23T00:54:43;8.20;;;5.18;;
51612;SDS011;37694;51.748;14.326;2023-03-23T00:57:09;6.20;;;5.28;;
51612;SDS011;37694;51.748;14.326;2023-03-23T00:59:35;6.30;;;4.90;;
51612;SDS011;37694;51.748;14.326;2023-03-23T01:02:01;10.60;;;5.78;;
51612;SDS011;37694;51.748;14.326;2023-03-23T01:04:26;7.78;;;5.18;;
51612;SDS011;37694;51.748;14.326;2023-03-23T01:06:53;6.50;;;4.95;;
51612;SDS011;37694;51.748;14.326;2023-03-23T01:09:19;7.05;;;5.07;;
51612;SDS011;37694;51.748;14.326;2023-03-23T01:11:47;8.75;;;5.30;;
51612;SDS011;37694;51.748;14.326;2023-03-23T01:14:14;11.13;;;5.20;;
51612;SDS011;37694;51.748;14.326;2023-03-23T01:16:42;6.10;;;5.15;;
51612;SDS011;37694;51.748;14.326;2023-03-23T01:19:08;9.15;;;5.45;;
51612;SDS011;37694;51.748;14.326;2023-03-23T01:21:33;5.68;;;4.72;;
51612;SDS011;37694;51.748;14.326;2023-03-23T01:24:00;6.15;;;5.03;;
51612;SDS011;37694;51.748;14.326;2023-03-23T01:26:26;6.40;;;5.18;;
51612;SDS011;37694;51.748;14.326;2023-03-23T01:28:53;7.50;;;4.70;;
51612;SDS011;37694;51.748;14.326;2023-03-23T01:31:21;6.93;;;5.75;;
51612;SDS011;37694;51.748;14.326;2023-03-23T01:33:49;8.68;;;5.10;;
51612;SDS011;37694;51.748;14.326;2023-03-23T01:36:19;5.63;;;5.05;;
51612;SDS011;37694;51.748;14.326;2023-03-23T01:38:58;5.97;;;5.10;;
51612;SDS011;37694;51.748;14.326;2023-03-23T01:41:25;6.20;;;5.45;;
51612;SDS011;37694;51.748;14.326;2023-03-23T01:46:27;5.38;;;4.82;;
51612;SDS011;37694;51.748;14.326;2023-03-23T01:48:55;5.63;;;5.05;;
51612;SDS011;37694;51.748;14.326;2023-03-23T01:51:23;7.82;;;5.30;;
51612;SDS011;37694;51.748;14.326;2023-03-23T01:53:53;5.85;;;5.25;;
51612;SDS011;37694;51.748;14.326;2023-03-23T01:56:22;6.60;;;5.03;;
51612;SDS011;37694;51.748;14.326;2023-03-23T01:58:54;7.43;;;4.78;;
51612;SDS011;37694;51.748;14.326;2023-03-23T02:01:21;5.47;;;4.68;;
51612;SDS011;37694;51.748;14.326;2023-03-23T02:03:50;6.82;;;5.00;;
51612;SDS011;37694;51.748;14.326;2023-03-23T02:06:17;7.90;;;5.32;;
51612;SDS011;37694;51.748;14.326;2023-03-23T02:08:43;5.13;;;4.63;;
51612;SDS011;37694;51.748;14.326;2023-03-23T02:11:20;5.72;;;5.00;;
51612;SDS011;37694;51.748;14.326;2023-03-23T02:13:46;7.63;;;4.90;;
51612;SDS011;37694;51.748;14.326;2023-03-23T02:34:53;5.35;;;4.80;;
51612;SDS011;37694;51.748;14.326;2023-03-23T02:37:32;5.30;;;4.35;;
51612;SDS011;37694;51.748;14.326;2023-03-23T02:42:39;4.82;;;4.28;;
51612;SDS011;37694;51.748;14.326;2023-03-23T02:45:08;5.13;;;4.40;;
51612;SDS011;37694;51.748;14.326;2023-03-23T02:47:37;8.10;;;4.82;;
51612;SDS011;37694;51.748;14.326;2023-03-23T02:50:05;5.93;;;4.28;;
51612;SDS011;37694;51.748;14.326;2023-03-23T02:52:35;7.05;;;5.30;;
51612;SDS011;37694;51.748;14.326;2023-03-23T02:55:03;4.80;;;4.40;;
51612;SDS011;37694;51.748;14.326;2023-03-23T02:57:30;5.07;;;4.57;;
51612;SDS011;37694;51.748;14.326;2023-03-23T02:59:57;4.82;;;4.22;;
51612;SDS011;37694;51.748;14.326;2023-03-23T03:02:23;4.70;;;3.97;;
51612;SDS011;37694;51.748;14.326;2023-03-23T03:04:56;6.35;;;4.70;;
51612;SDS011;37694;51.748;14.326;2023-03-23T03:07:36;5.40;;;4.28;;
51612;SDS011;37694;51.748;14.326;2023-03-23T03:15:40;5.55;;;4.63;;
51612;SDS011;37694;51.748;14.326;2023-03-23T03:18:18;5.47;;;4.55;;
51612;SDS011;37694;51.748;14.326;2023-03-23T03:20:54;6.22;;;4.80;;
51612;SDS011;37694;51.748;14.326;2023-03-23T03:23:24;6.47;;;4.20;;
51612;SDS011;37694;51.748;14.326;2023-03-23T03:25:52;4.65;;;4.20;;
51612;SDS011;37694;51.748;14.326;2023-03-23T03:28:22;5.25;;;4.50;;
51612;SDS011;37694;51.748;14.326;2023-03-23T03:30:52;4.32;;;3.92;;
51612;SDS011;37694;51.748;14.326;2023-03-23T03:33:21;4.97;;;3.85;;
51612;SDS011;37694;51.748;14.326;2023-03-23T03:35:50;5.80;;;4.65;;
51612;SDS011;37694;51.748;14.326;2023-03-23T03:38:19;4.60;;;4.20;;
51612;SDS011;37694;51.748;14.326;2023-03-23T03:40:45;5.15;;;4.65;;
51612;SDS011;37694;51.748;14.326;2023-03-23T03:43:11;6.28;;;4.20;;
51612;SDS011;37694;51.748;14.326;2023-03-23T03:45:37;4.50;;;4.10;;
51612;SDS011;37694;51.748;14.326;2023-03-23T03:48:02;4.15;;;3.75;;
51612;SDS011;37694;51.748;14.326;2023-03-23T03:50:28;6.20;;;4.38;;
51612;SDS011;37694;51.748;14.326;2023-03-23T03:52:54;4.88;;;4.35;;
51612;SDS011;37694;51.748;14.326;2023-03-23T03:55:20;4.90;;;4.20;;
51612;SDS011;37694;51.748;14.326;2023-03-23T03:57:46;5.60;;;4.30;;
51612;SDS011;37694;51.748;14.326;2023-03-23T04:00:13;4.35;;;3.90;;
51612;SDS011;37694;51.748;14.326;2023-03-23T04:02:40;4.20;;;3.80;;
51612;SDS011;37694;51.748;14.326;2023-03-23T04:05:15;5.03;;;3.88;;
51612;SDS011;37694;51.748;14.326;2023-03-23T04:07:42;4.57;;;3.80;;
51612;SDS011;37694;51.748;14.326;2023-03-23T04:10:08;4.65;;;4.00;;
51612;SDS011;37694;51.748;14.326;2023-03-23T04:12:38;5.45;;;4.05;;
51612;SDS011;37694;51.748;14.326;2023-03-23T04:15:04;5.93;;;3.95;;
51612;SDS011;37694;51.748;14.326;2023-03-23T04:17:30;4.10;;;3.80;;
51612;SDS011;37694;51.748;14.326;2023-03-23T04:19:56;4.55;;;3.30;;
51612;SDS011;37694;51.748;14.326;2023-03-23T04:22:26;4.05;;;3.67;;
51612;SDS011;37694;51.748;14.326;2023-03-23T04:24:58;4.25;;;3.85;;
51612;SDS011;37694;51.748;14.326;2023-03-23T04:27:25;4.20;;;3.67;;
51612;SDS011;37694;51.748;14.326;2023-03-23T04:29:53;3.67;;;3.38;;
51612;SDS011;37694;51.748;14.326;2023-03-23T04:32:24;4.57;;;3.80;;
51612;SDS011;37694;51.748;14.326;2023-03-23T04:34:53;3.95;;;3.20;;
51612;SDS011;37694;51.748;14.326;2023-03-23T04:37:21;4.45;;;4.00;;
51612;SDS011;37694;51.748;14.326;2023-03-23T04:39:50;3.92;;;3.63;;
51612;SDS011;37694;51.748;14.326;2023-03-23T04:42:25;4.90;;;3.25;;
51612;SDS011;37694;51.748;14.326;2023-03-23T04:44:55;4.63;;;3.55;;
51612;SDS011;37694;51.748;14.326;2023-03-23T04:47:22;6.30;;;3.65;;
51612;SDS011;37694;51.748;14.326;2023-03-23T04:49:48;3.45;;;3.15;;
51612;SDS011;37694;51.748;14.326;2023-03-23T04:52:15;4.40;;;3.60;;
51612;SDS011;37694;51.748;14.326;2023-03-23T04:54:41;4.20;;;3.60;;
51612;SDS011;37694;51.748;14.326;2023-03-23T04:57:07;4.32;;;3.63;;
51612;SDS011;37694;51.748;14.326;2023-03-23T04:59:33;3.45;;;3.15;;
51612;SDS011;37694;51.748;14.326;2023-03-23T05:01:59;3.55;;;3.25;;
51612;SDS011;37694;51.748;14.326;2023-03-23T05:04:25;3.67;;;3.33;;
51612;SDS011;37694;51.748;14.326;2023-03-23T05:06:51;4.03;;;3.45;;
51612;SDS011;37694;51.748;14.326;2023-03-23T05:09:18;3.40;;;3.10;;
51612;SDS011;37694;51.748;14.326;2023-03-23T05:11:44;4.82;;;3.50;;
51612;SDS011;37694;51.748;14.326;2023-03-23T05:14:10;3.75;;;3.45;;
51612;SDS011;37694;51.748;14.326;2023-03-23T05:16:36;3.80;;;3.50;;
51612;SDS011;37694;51.748;14.326;2023-03-23T05:19:02;4.18;;;3.45;;
51612;SDS011;37694;51.748;14.326;2023-03-23T05:21:29;4.78;;;3.90;;
51612;SDS011;37694;51.748;14.326;2023-03-23T05:23:56;3.53;;;3.22;;
51612;SDS011;37694;51.748;14.326;2023-03-23T05:26:25;3.72;;;3.40;;
51612;SDS011;37694;51.748;14.326;2023-03-23T05:28:54;3.55;;;3.25;;
51612;SDS011;37694;51.748;14.326;2023-03-23T05:31:21;4.25;;;3.67;;
51612;SDS011;37694;51.748;14.326;2023-03-23T05:33:47;3.38;;;3.08;;
51612;SDS011;37694;51.748;14.326;2023-03-23T05:36:13;3.80;;;3.47;;
51612;SDS011;37694;51.748;14.326;2023-03-23T05:38:39;3.58;;;3.28;;
51612;SDS011;37694;51.748;14.326;2023-03-23T05:41:10;4.82;;;3.78;;
51612;SDS011;37694;51.748;14.326;2023-03-23T05:43:36;3.42;;;2.90;;
51612;SDS011;37694;51.748;14.326;2023-03-23T05:46:02;3.63;;;3.33;;
51612;SDS011;37694;51.748;14.326;2023-03-23T05:48:28;3.53;;;3.17;;
51612;SDS011;37694;51.748;14.326;2023-03-23T05:50:53;3.22;;;2.92;;
51612;SDS011;37694;51.748;14.326;2023-03-23T05:53:19;3.45;;;3.15;;
51612;SDS011;37694;51.748;14.326;2023-03-23T05:55:45;5.60;;;3.17;;
51612;SDS011;37694;51.748;14.326;2023-03-23T05:58:11;5.28;;;3.13;;
51612;SDS011;37694;51.748;14.326;2023-03-23T06:00:37;3.60;;;3.20;;
51612;SDS011;37694;51.748;14.326;2023-03-23T06:03:04;3.42;;;3.13;;
51612;SDS011;37694;51.748;14.326;2023-03-23T06:05:30;3.33;;;3.03;;
51612;SDS011;37694;51.748;14.326;2023-03-23T06:07:57;4.25;;;3.38;;
51612;SDS011;37694;51.748;14.326;2023-03-23T06:10:24;6.18;;;3.50;;
51612;SDS011;37694;51.748;14.326;2023-03-23T06:12:50;4.03;;;2.80;;
51612;SDS011;37694;51.748;14.326;2023-03-23T06:15:18;2.95;;;2.75;;
51612;SDS011;37694;51.748;14.326;2023-03-23T06:17:44;3.75;;;3.35;;
51612;SDS011;37694;51.748;14.326;2023-03-23T06:20:10;3.47;;;3.15;;
51612;SDS011;37694;51.748;14.326;2023-03-23T06:22:37;6.85;;;3.42;;
51612;SDS011;37694;51.748;14.326;2023-03-23T06:25:08;2.80;;;2.60;;
51612;SDS011;37694;51.748;14.326;2023-03-23T06:27:36;4.40;;;3.17;;
51612;SDS011;37694;51.748;14.326;2023-03-23T06:30:02;4.55;;;3.25;;
51612;SDS011;37694;51.748;14.326;2023-03-23T06:32:29;9.07;;;3.55;;
51612;SDS011;37694;51.748;14.326;2023-03-23T06:34:56;7.95;;;3.00;;
51612;SDS011;37694;51.748;14.326;2023-03-23T06:37:22;10.27;;;3.08;;
51612;SDS011;37694;51.748;14.326;2023-03-23T06:39:50;6.50;;;3.45;;
51612;SDS011;37694;51.748;14.326;2023-03-23T06:42:16;8.18;;;3.40;;
51612;SDS011;37694;51.748;14.326;2023-03-23T06:44:43;12.98;;;3.58;;
51612;SDS011;37694;51.748;14.326;2023-03-23T06:47:08;9.13;;;2.92;;
51612;SDS011;37694;51.748;14.326;2023-03-23T06:49:34;7.78;;;3.28;;
51612;SDS011;37694;51.748;14.326;2023-03-23T06:52:00;7.60;;;2.63;;
51612;SDS011;37694;51.748;14.326;2023-03-23T06:54:28;6.10;;;2.83;;
51612;SDS011;37694;51.748;14.326;2023-03-23T06:56:54;18.88;;;5.10;;
51612;SDS011;37694;51.748;14.326;2023-03-23T06:59:19;16.48;;;3.67;;
51612;SDS011;37694;51.748;14.326;2023-03-23T07:01:45;14.30;;;4.28;;
51612;SDS011;37694;51.748;14.326;2023-03-23T07:04:11;29.90;;;5.82;;
51612;SDS011;37694;51.748;14.326;2023-03-23T07:06:38;21.38;;;4.50;;
51612;SDS011;37694;51.748;14.326;2023-03-23T07:09:03;21.55;;;5.15;;
51612;SDS011;37694;51.748;14.326;2023-03-23T07:11:29;43.15;;;7.43;;
51612;SDS011;37694;51.748;14.326;2023-03-23T07:13:55;40.42;;;9.80;;
51612;SDS011;37694;51.748;14.326;2023-03-23T07:16:21;48.95;;;10.07;;
51612;SDS011;37694;51.748;14.326;2023-03-23T07:18:46;78.63;;;12.20;;
51612;SDS011;37694;51.748;14.326;2023-03-23T07:21:13;51.90;;;10.82;;
51612;SDS011;37694;51.748;14.326;2023-03-23T07:23:39;49.88;;;11.00;;
51612;SDS011;37694;51.748;14.326;2023-03-23T07:26:05;68.07;;;10.98;;
51612;SDS011;37694;51.748;14.326;2023-03-23T07:28:31;58.60;;;11.90;;
51612;SDS011;37694;51.748;14.326;2023-03-23T07:30:57;36.35;;;8.93;;
51612;SDS011;37694;51.748;14.326;2023-03-23T07:33:23;39.90;;;9.15;;
51612;SDS011;37694;51.748;14.326;2023-03-23T07:35:48;48.75;;;10.20;;
51612;SDS011;37694;51.748;14.326;2023-03-23T07:38:14;47.00;;;10.15;;
51612;SDS011;37694;51.748;14.326;2023-03-23T07:40:40;41.78;;;8.75;;
51612;SDS011;37694;51.748;14.326;2023-03-23T07:43:06;38.63;;;9.10;;
51612;SDS011;37694;51.748;14.326;2023-03-23T07:45:32;58.33;;;9.80;;
51612;SDS011;37694;51.748;14.326;2023-03-23T07:47:58;46.50;;;9.85;;
51612;SDS011;37694;51.748;14.326;2023-03-23T07:50:25;39.75;;;10.07;;
51612;SDS011;37694;51.748;14.326;2023-03-23T07:52:53;47.95;;;8.82;;
51612;SDS011;37694;51.748;14.326;2023-03-23T07:55:20;37.35;;;8.70;;
51612;SDS011;37694;51.748;14.326;2023-03-23T07:57:48;35.13;;;9.25;;
51612;SDS011;37694;51.748;14.326;2023-03-23T08:00:15;43.03;;;10.30;;
51612;SDS011;37694;51.748;14.326;2023-03-23T08:02:49;47.88;;;10.43;;
51612;SDS011;37694;51.748;14.326;2023-03-23T08:05:16;36.72;;;8.00;;
51612;SDS011;37694;51.748;14.326;2023-03-23T08:07:43;37.75;;;7.68;;
51612;SDS011;37694;51.748;14.326;2023-03-23T08:10:10;33.70;;;8.23;;
51612;SDS011;37694;51.748;14.326;2023-03-23T08:12:40;25.90;;;6.88;;
51612;SDS011;37694;51.748;14.326;2023-03-23T08:15:07;26.08;;;6.88;;
51612;SDS011;37694;51.748;14.326;2023-03-23T08:17:37;29.00;;;7.75;;
51612;SDS011;37694;51.748;14.326;2023-03-23T08:20:05;28.67;;;7.63;;
51612;SDS011;37694;51.748;14.326;2023-03-23T08:22:35;23.83;;;8.32;;
51612;SDS011;37694;51.748;14.326;2023-03-23T08:25:03;23.85;;;7.28;;
51612;SDS011;37694;51.748;14.326;2023-03-23T08:27:31;35.92;;;8.30;;
51612;SDS011;37694;51.748;14.326;2023-03-23T08:29:57;25.98;;;6.57;;
51612;SDS011;37694;51.748;14.326;2023-03-23T08:32:23;25.75;;;6.90;;
51612;SDS011;37694;51.748;14.326;2023-03-23T08:34:48;27.00;;;6.85;;
51612;SDS011;37694;51.748;14.326;2023-03-23T08:37:14;27.40;;;7.90;;
51612;SDS011;37694;51.748;14.326;2023-03-23T08:39:41;33.42;;;8.05;;
51612;SDS011;37694;51.748;14.326;2023-03-23T08:42:10;18.85;;;6.10;;
51612;SDS011;37694;51.748;14.326;2023-03-23T08:44:36;23.60;;;7.50;;
51612;SDS011;37694;51.748;14.326;2023-03-23T08:47:03;18.55;;;6.22;;
51612;SDS011;37694;51.748;14.326;2023-03-23T08:49:30;21.83;;;6.05;;
51612;SDS011;37694;51.748;14.326;2023-03-23T08:51:59;27.92;;;7.03;;
51612;SDS011;37694;51.748;14.326;2023-03-23T08:54:24;20.67;;;6.05;;
51612;SDS011;37694;51.748;14.326;2023-03-23T08:56:50;25.48;;;6.50;;
51612;SDS011;37694;51.748;14.326;2023-03-23T08:59:16;19.92;;;6.18;;
51612;SDS011;37694;51.748;14.326;2023-03-23T09:01:42;18.85;;;5.72;;
51612;SDS011;37694;51.748;14.326;2023-03-23T09:04:08;23.25;;;6.70;;
51612;SDS011;37694;51.748;14.326;2023-03-23T09:06:35;19.92;;;5.43;;
51612;SDS011;37694;51.748;14.326;2023-03-23T09:09:02;21.10;;;5.68;;
51612;SDS011;37694;51.748;14.326;2023-03-23T09:11:31;12.55;;;5.22;;
51612;SDS011;37694;51.748;14.326;2023-03-23T09:13:58;18.77;;;5.00;;
51612;SDS011;37694;51.748;14.326;2023-03-23T09:16:24;18.45;;;5.78;;
51612;SDS011;37694;51.748;14.326;2023-03-23T09:18:50;14.20;;;4.93;;
51612;SDS011;37694;51.748;14.326;2023-03-23T09:21:16;14.13;;;5.22;;
51612;SDS011;37694;51.748;14.326;2023-03-23T09:23:42;12.88;;;4.32;;
51612;SDS011;37694;51.748;14.326;2023-03-23T09:26:09;25.40;;;5.32;;
51612;SDS011;37694;51.748;14.326;2023-03-23T09:28:35;14.65;;;4.50;;
51612;SDS011;37694;51.748;14.326;2023-03-23T09:31:01;17.35;;;4.47;;
51612;SDS011;37694;51.748;14.326;2023-03-23T09:33:27;16.63;;;4.53;;
51612;SDS011;37694;51.748;14.326;2023-03-23T09:35:57;12.95;;;4.43;;
51612;SDS011;37694;51.748;14.326;2023-03-23T09:38:23;15.77;;;4.50;;
51612;SDS011;37694;51.748;14.326;2023-03-23T09:41:00;24.65;;;5.35;;
51612;SDS011;37694;51.748;14.326;2023-03-23T09:49:00;21.90;;;4.85;;
51612;SDS011;37694;51.748;14.326;2023-03-23T09:56:59;24.85;;;5.90;;
51612;SDS011;37694;51.748;14.326;2023-03-23T09:59:28;19.48;;;4.80;;
51612;SDS011;37694;51.748;14.326;2023-03-23T10:02:11;19.48;;;4.97;;
51612;SDS011;37694;51.748;14.326;2023-03-23T10:04:49;26.15;;;5.28;;
51612;SDS011;37694;51.748;14.326;2023-03-23T10:07:20;22.92;;;3.75;;
51612;SDS011;37694;51.748;14.326;2023-03-23T10:09:57;18.80;;;4.95;;
51612;SDS011;37694;51.748;14.326;2023-03-23T10:15:17;7.32;;;3.67;;
51612;SDS011;37694;51.748;14.326;2023-03-23T10:18:01;19.17;;;4.25;;
51612;SDS011;37694;51.748;14.326;2023-03-23T10:26:04;10.77;;;3.80;;
51612;SDS011;37694;51.748;14.326;2023-03-23T10:28:36;9.10;;;3.75;;
51612;SDS011;37694;51.748;14.326;2023-03-23T10:31:04;14.48;;;4.05;;
51612;SDS011;37694;51.748;14.326;2023-03-23T10:33:45;7.40;;;3.28;;
51612;SDS011;37694;51.748;14.326;2023-03-23T10:36:18;8.30;;;3.63;;
51612;SDS011;37694;51.748;14.326;2023-03-23T10:41:14;12.82;;;4.25;;
51612;SDS011;37694;51.748;14.326;2023-03-23T10:43:43;18.50;;;4.32;;
51612;SDS011;37694;51.748;14.326;2023-03-23T10:49:02;11.23;;;3.95;;
51612;SDS011;37694;51.748;14.326;2023-03-23T10:51:37;14.50;;;4.18;;
51612;SDS011;37694;51.748;14.326;2023-03-23T10:59:14;9.93;;;4.70;;
51612;SDS011;37694;51.748;14.326;2023-03-23T11:01:53;14.88;;;3.55;;
51612;SDS011;37694;51.748;14.326;2023-03-23T11:04:21;7.78;;;3.88;;
51612;SDS011;37694;51.748;14.326;2023-03-23T11:06:49;17.13;;;5.05;;
51612;SDS011;37694;51.748;14.326;2023-03-23T11:09:21;21.75;;;4.88;;
51612;SDS011;37694;51.748;14.326;2023-03-23T11:12:02;15.35;;;4.60;;
51612;SDS011;37694;51.748;14.326;2023-03-23T11:14:29;14.90;;;3.88;;
51612;SDS011;37694;51.748;14.326;2023-03-23T11:17:01;25.30;;;5.00;;
51612;SDS011;37694;51.748;14.326;2023-03-23T11:19:30;21.38;;;4.25;;
51612;SDS011;37694;51.748;14.326;2023-03-23T11:22:06;13.13;;;4.03;;
51612;SDS011;37694;51.748;14.326;2023-03-23T11:24:40;11.70;;;3.78;;
51612;SDS011;37694;51.748;14.326;2023-03-23T11:27:08;24.38;;;4.50;;
51612;SDS011;37694;51.748;14.326;2023-03-23T11:29:35;17.33;;;3.83;;
51612;SDS011;37694;51.748;14.326;2023-03-23T11:32:09;9.40;;;3.10;;
51612;SDS011;37694;51.748;14.326;2023-03-23T11:34:43;15.75;;;4.10;;
51612;SDS011;37694;51.748;14.326;2023-03-23T11:39:48;12.98;;;4.13;;
51612;SDS011;37694;51.748;14.326;2023-03-23T11:42:19;4.55;;;2.85;;
51612;SDS011;37694;51.748;14.326;2023-03-23T11:44:46;7.50;;;3.30;;
51612;SDS011;37694;51.748;14.326;2023-03-23T11:47:32;10.23;;;3.47;;
51612;SDS011;37694;51.748;14.326;2023-03-23T11:50:08;4.93;;;2.70;;
51612;SDS011;37694;51.748;14.326;2023-03-23T11:55:28;6.38;;;2.55;;
51612;SDS011;37694;51.748;14.326;2023-03-23T11:58:15;6.75;;;2.70;;
51612;SDS011;37694;51.748;14.326;2023-03-23T12:09:15;7.20;;;2.47;;
51612;SDS011;37694;51.748;14.326;2023-03-23T12:12:02;9.50;;;2.90;;
51612;SDS011;37694;51.748;14.326;2023-03-23T12:25:15;5.03;;;2.33;;
51612;SDS011;37694;51.748;14.326;2023-03-23T12:27:58;5.55;;;2.70;;
51612;SDS011;37694;51.748;14.326;2023-03-23T12:41:29;7.75;;;2.60;;
51612;SDS011;37694;51.748;14.326;2023-03-23T12:44:02;4.63;;;2.40;;
51612;SDS011;37694;51.748;14.326;2023-03-23T12:46:51;6.35;;;2.33;;
51612;SDS011;37694;51.748;14.326;2023-03-23T12:49:52;7.07;;;2.30;;
51612;SDS011;37694;51.748;14.326;2023-03-23T12:57:42;2.33;;;2.13;;
51612;SDS011;37694;51.748;14.326;2023-03-23T13:07:49;6.68;;;2.20;;
51612;SDS011;37694;51.748;14.326;2023-03-23T13:10:30;2.90;;;1.90;;
51612;SDS011;37694;51.748;14.326;2023-03-23T13:13:00;2.65;;;1.80;;
51612;SDS011;37694;51.748;14.326;2023-03-23T13:15:32;6.63;;;1.95;;
51612;SDS011;37694;51.748;14.326;2023-03-23T13:18:16;3.07;;;1.80;;
51612;SDS011;37694;51.748;14.326;2023-03-23T13:21:02;8.55;;;2.10;;
51612;SDS011;37694;51.748;14.326;2023-03-23T13:24:05;5.80;;;2.30;;
51612;SDS011;37694;51.748;14.326;2023-03-23T13:26:38;5.80;;;1.63;;
51612;SDS011;37694;51.748;14.326;2023-03-23T13:29:14;2.03;;;1.50;;
51612;SDS011;37694;51.748;14.326;2023-03-23T13:31:46;6.07;;;1.95;;
51612;SDS011;37694;51.748;14.326;2023-03-23T13:39:27;2.58;;;1.70;;
51612;SDS011;37694;51.748;14.326;2023-03-23T13:42:05;8.15;;;1.50;;
51612;SDS011;37694;51.748;14.326;2023-03-23T13:49:57;3.83;;;2.00;;
51612;SDS011;37694;51.748;14.326;2023-03-23T14:03:13;5.28;;;1.80;;
51612;SDS011;37694;51.748;14.326;2023-03-23T14:11:01;7.47;;;2.00;;
51612;SDS011;37694;51.748;14.326;2023-03-23T14:21:15;6.07;;;2.15;;
51612;SDS011;37694;51.748;14.326;2023-03-23T14:23:47;4.57;;;1.90;;
51612;SDS011;37694;51.748;14.326;2023-03-23T14:26:17;14.85;;;1.88;;
51612;SDS011;37694;51.748;14.326;2023-03-23T14:28:45;9.73;;;2.92;;
51612;SDS011;37694;51.748;14.326;2023-03-23T14:31:25;6.55;;;1.88;;
51612;SDS011;37694;51.748;14.326;2023-03-23T14:33:52;11.02;;;2.40;;
51612;SDS011;37694;51.748;14.326;2023-03-23T14:36:29;8.55;;;1.77;;
51612;SDS011;37694;51.748;14.326;2023-03-23T14:41:31;4.00;;;1.50;;
51612;SDS011;37694;51.748;14.326;2023-03-23T14:43:59;6.45;;;2.05;;
51612;SDS011;37694;51.748;14.326;2023-03-23T14:46:26;5.22;;;1.80;;
51612;SDS011;37694;51.748;14.326;2023-03-23T14:48:54;2.10;;;1.60;;
51612;SDS011;37694;51.748;14.326;2023-03-23T14:51:20;7.32;;;2.28;;
51612;SDS011;37694;51.748;14.326;2023-03-23T14:53:46;10.30;;;1.70;;
51612;SDS011;37694;51.748;14.326;2023-03-23T14:56:17;2.80;;;1.98;;
51612;SDS011;37694;51.748;14.326;2023-03-23T14:58:48;5.20;;;1.95;;
51612;SDS011;37694;51.748;14.326;2023-03-23T15:03:55;4.50;;;1.60;;
51612;SDS011;37694;51.748;14.326;2023-03-23T15:06:32;6.65;;;2.00;;
51612;SDS011;37694;51.748;14.326;2023-03-23T15:09:02;3.35;;;1.90;;
51612;SDS011;37694;51.748;14.326;2023-03-23T15:11:35;6.35;;;1.65;;
51612;SDS011;37694;51.748;14.326;2023-03-23T15:14:47;7.45;;;1.80;;
51612;SDS011;37694;51.748;14.326;2023-03-23T15:16:58;4.35;;;2.10;;
51612;SDS011;37694;51.748;14.326;2023-03-23T15:19:27;2.42;;;1.63;;
51612;SDS011;37694;51.748;14.326;2023-03-23T15:22:04;3.22;;;1.80;;
51612;SDS011;37694;51.748;14.326;2023-03-23T15:24:43;10.18;;;2.03;;
51612;SDS011;37694;51.748;14.326;2023-03-23T15:27:52;1.70;;;1.42;;
51612;SDS011;37694;51.748;14.326;2023-03-23T15:29:59;17.02;;;2.67;;
51612;SDS011;37694;51.748;14.326;2023-03-23T15:32:40;1.98;;;1.75;;
51612;SDS011;37694;51.748;14.326;2023-03-23T15:35:41;10.95;;;1.98;;
51612;SDS011;37694;51.748;14.326;2023-03-23T15:38:02;8.85;;;2.08;;
51612;SDS011;37694;51.748;14.326;2023-03-23T15:40:40;10.45;;;2.05;;
51612;SDS011;37694;51.748;14.326;2023-03-23T15:45:56;13.45;;;3.03;;
51612;SDS011;37694;51.748;14.326;2023-03-23T15:48:29;9.30;;;2.25;;
51612;SDS011;37694;51.748;14.326;2023-03-23T15:50:56;6.82;;;1.75;;
51612;SDS011;37694;51.748;14.326;2023-03-23T15:55:53;13.63;;;3.25;;
51612;SDS011;37694;51.748;14.326;2023-03-23T15:58:19;2.72;;;1.60;;
51612;SDS011;37694;51.748;14.326;2023-03-23T16:00:45;5.78;;;1.52;;
51612;SDS011;37694;51.748;14.326;2023-03-23T16:03:13;3.95;;;1.17;;
51612;SDS011;37694;51.748;14.326;2023-03-23T16:05:49;7.30;;;1.90;;
51612;SDS011;37694;51.748;14.326;2023-03-23T16:08:15;5.78;;;1.60;;
51612;SDS011;37694;51.748;14.326;2023-03-23T16:10:41;6.28;;;1.77;;
51612;SDS011;37694;51.748;14.326;2023-03-23T16:13:07;6.85;;;1.75;;
51612;SDS011;37694;51.748;14.326;2023-03-23T16:15:33;9.00;;;1.80;;
51612;SDS011;37694;51.748;14.326;2023-03-23T16:17:58;6.57;;;1.48;;
51612;SDS011;37694;51.748;14.326;2023-03-23T16:20:24;10.55;;;2.10;;
51612;SDS011;37694;51.748;14.326;2023-03-23T16:22:52;6.75;;;1.70;;
51612;SDS011;37694;51.748;14.326;2023-03-23T16:25:18;8.55;;;2.13;;
51612;SDS011;37694;51.748;14.326;2023-03-23T16:27:44;9.88;;;1.83;;
51612;SDS011;37694;51.748;14.326;2023-03-23T16:32:44;3.00;;;2.00;;
51612;SDS011;37694;51.748;14.326;2023-03-23T16:35:13;8.60;;;2.08;;
51612;SDS011;37694;51.748;14.326;2023-03-23T16:37:46;10.00;;;1.73;;
51612;SDS011;37694;51.748;14.326;2023-03-23T16:40:15;10.48;;;1.85;;
51612;SDS011;37694;51.748;14.326;2023-03-23T16:42:42;10.00;;;1.80;;
51612;SDS011;37694;51.748;14.326;2023-03-23T16:45:08;10.55;;;1.60;;
51612;SDS011;37694;51.748;14.326;2023-03-23T16:47:34;5.20;;;1.70;;
51612;SDS011;37694;51.748;14.326;2023-03-23T16:50:00;11.38;;;1.90;;
51612;SDS011;37694;51.748;14.326;2023-03-23T16:52:26;11.88;;;2.20;;
51612;SDS011;37694;51.748;14.326;2023-03-23T16:54:52;10.23;;;1.90;;
51612;SDS011;37694;51.748;14.326;2023-03-23T16:57:17;8.98;;;2.08;;
51612;SDS011;37694;51.748;14.326;2023-03-23T16:59:43;10.13;;;2.15;;
51612;SDS011;37694;51.748;14.326;2023-03-23T17:02:10;18.50;;;2.08;;
51612;SDS011;37694;51.748;14.326;2023-03-23T17:04:36;15.48;;;2.15;;
51612;SDS011;37694;51.748;14.326;2023-03-23T17:07:06;7.57;;;1.90;;
51612;SDS011;37694;51.748;14.326;2023-03-23T17:09:32;18.73;;;3.28;;
51612;SDS011;37694;51.748;14.326;2023-03-23T17:11:57;10.60;;;2.08;;
51612;SDS011;37694;51.748;14.326;2023-03-23T17:14:23;13.07;;;2.33;;
51612;SDS011;37694;51.748;14.326;2023-03-23T17:16:49;7.70;;;2.00;;
51612;SDS011;37694;51.748;14.326;2023-03-23T17:19:14;12.85;;;2.08;;